Saint Croix, Virgin Islands
Current Conditions -  °F | °C
As of 9:00 PM on Thursday 18 Dec 2014 (Local Time) from TUPJ Reporting Station
Scattered Clouds Scattered Clouds  
Wind Chill: 79°   Ceiling: Unl
Heat Index: 81°   Visibility: 6mi
Dew Point: 70°   Wind: 8mph
Humidity: 74%   Direction: 70°ENE
Pressure: 29.97"   Gusts: NA
Location:  17.7°N, 64.8°W
Report Text: TUPJ 190100Z 07007KT 9999 SCT019 26/21 Q1015
Loading
Personal Weather Stations






























Interactive Weather Map New forecast layout! Learn more

10-Day Weather Forecast

Advertisements
Track Severe Weather on mobile